Airfield :







YOU CAN JOIN US ON...

 
LOGIN :

Register | Disclaimer

   EN    FR    IT 

 









Legend :    VFR   Marginal VFR   IFR   Intensive IFR   Very Intensive IFR
Visi :
Ceiling :
>= 8 km
>= 3000ft
5 to 8 km
1000 to 3000 ft
1500m to 5 km
500 to 1000 ft
800 to 1500m
200 to 500 ft
< 800m
< 200 ft
Symbols :   Thunderstorms  Fog  Heavy snow  Heavy precipitations  Wind > 20 kt






- Airport Elevation : 930 ft


KEFK - Newport State

CURRENT METAR :
  • 272116Z AUTO 31005KT 5SM -SN SCT010 OVC020 00/00 A2955 RMK AO2 T00001005

EXPIRED METARs :
  • 272056Z AUTO 31004KT 10SM SCT012 OVC020 00/M01 A2955 RMK AO2 T00001006
  • 272055Z AUTO 31005KT 10SM SCT012 OVC020 00/M01 A2955 RMK AO2 T00001006
  • 272037Z AUTO 30004KT 10SM SCT012 OVC020 00/M01 A2954 RMK AO2 T00021007
  • 272015Z AUTO 27005KT 10SM OVC019 01/M01 A2953 RMK AO2 T00051007
  • 271957Z AUTO 00000KT 7SM -SN BKN015 OVC021 01/00 A2953 RMK AO2 T00051003
  • 271936Z AUTO 00000KT 7SM -SN BKN015 OVC022 01/00 A2952 RMK AO2 T00051005
  • 271916Z AUTO 00000KT 10SM BKN012 OVC019 00/00 A2952 RMK AO2 T00041002
  • 271855Z AUTO 00000KT 10SM -SN BKN012 OVC020 00/00 A2952 RMK AO2 T00001001
  • 271837Z AUTO 00000KT 10SM SCT010 BKN014 OVC022 00/00 A2952 RMK AO2 T00001003

TAF N/A



MET'MAP, your aeronautical weather chart ! - Copyright ORBIFLY December 2007 - Disclaimer

ORBIFLY MET'MAP TEAM :

Programming & Development : Alexandra Zaïnal
Concept & original design : Baudouin d'Aumeries
Assistance for programming : Marc-Olivier Méhu
Technical & hardware support : Manuel Goepfert

Contact : metmap@orbifly.com




SOURCES & CREDITS :

   NOAA